createdAt,value
2018-04-02T00:00:30.729Z,6.1
2018-04-02T00:01:32.483Z,6.2
2018-04-02T00:02:33.731Z,6.3
2018-04-02T00:03:34.944Z,6.3
2018-04-02T00:04:36.190Z,6.3
2018-04-02T00:05:37.461Z,6.3
2018-04-02T00:06:38.718Z,6.3
2018-04-02T00:07:40.688Z,6.3
2018-04-02T00:08:44.759Z,6.4
2018-04-02T00:09:46.041Z,6.5
2018-04-02T00:10:47.438Z,6.4
2018-04-02T00:11:48.666Z,6.4
2018-04-02T00:12:50.191Z,6.4
2018-04-02T00:13:56.741Z,6.4
2018-04-02T00:14:58.004Z,6.3
2018-04-02T00:15:59.303Z,6.3
2018-04-02T00:17:00.533Z,6.4
2018-04-02T00:18:01.788Z,6.3
2018-04-02T00:19:03.063Z,6.3
2018-04-02T00:20:04.329Z,6.3
2018-04-02T00:21:05.584Z,6.3
2018-04-02T00:22:06.819Z,6.3
2018-04-02T00:23:08.043Z,6.3
2018-04-02T00:24:09.292Z,6.3
2018-04-02T00:25:10.527Z,6.2
2018-04-02T00:26:11.840Z,6.2
2018-04-02T00:27:13.134Z,6.3
2018-04-02T00:28:14.374Z,6.3
2018-04-02T00:29:15.609Z,6.3
2018-04-02T00:30:16.866Z,6.2
2018-04-02T00:31:18.158Z,6.3
2018-04-02T00:32:19.456Z,6.4
2018-04-02T00:33:20.683Z,6.2
2018-04-02T00:34:21.949Z,6.1
2018-04-02T00:35:23.201Z,6.1
2018-04-02T00:36:24.482Z,6.2
2018-04-02T00:37:25.738Z,6.1
2018-04-02T00:38:26.989Z,6.2
2018-04-02T00:39:28.222Z,6.1
2018-04-02T00:40:29.521Z,6.1
2018-04-02T00:41:30.951Z,6.1
2018-04-02T00:42:32.200Z,6.1
2018-04-02T00:43:33.455Z,6
2018-04-02T00:44:34.685Z,6.1
2018-04-02T00:45:38.141Z,6.1
2018-04-02T00:46:45.637Z,6.1
2018-04-02T00:47:47.076Z,6.1
2018-04-02T00:48:48.406Z,6
2018-04-02T00:49:49.726Z,6
2018-04-02T00:50:50.975Z,6.1
2018-04-02T00:51:52.262Z,6.1
2018-04-02T00:52:53.532Z,6.1
2018-04-02T00:53:54.765Z,6.1
2018-04-02T00:54:55.996Z,6.1
2018-04-02T00:55:57.201Z,6.1
2018-04-02T00:56:58.568Z,6.2
2018-04-02T00:57:59.851Z,6.2
2018-04-02T00:59:01.083Z,6.2
2018-04-02T01:00:02.345Z,6.1
2018-04-02T01:01:03.630Z,6.1
2018-04-02T01:02:04.932Z,6.2
2018-04-02T01:03:07.175Z,6.1
2018-04-02T01:04:08.513Z,6.2
2018-04-02T01:05:09.841Z,6.3
2018-04-02T01:06:11.116Z,6.2
2018-04-02T01:07:12.421Z,6.1
2018-04-02T01:08:13.902Z,6.3
2018-04-02T01:09:15.893Z,6.3
2018-04-02T01:10:17.106Z,6.3
2018-04-02T01:11:18.942Z,6.1
2018-04-02T01:12:20.620Z,6.1
2018-04-02T01:13:21.857Z,6.2
2018-04-02T01:14:23.088Z,6.3
2018-04-02T01:15:24.324Z,6.3
2018-04-02T01:16:25.918Z,6.2
2018-04-02T01:17:27.204Z,6.2
2018-04-02T01:18:28.425Z,6.3
2018-04-02T01:19:29.689Z,6.5
2018-04-02T01:20:30.981Z,6.6
2018-04-02T01:21:32.189Z,6.6
2018-04-02T01:22:33.432Z,6.6
2018-04-02T01:23:34.640Z,6.6
2018-04-02T01:24:35.871Z,6.7
2018-04-02T01:25:37.086Z,6.7
2018-04-02T01:26:38.321Z,6.7
2018-04-02T01:27:39.734Z,6.7
2018-04-02T01:28:43.877Z,6.7
2018-04-02T01:29:46.133Z,6.8
2018-04-02T01:30:47.360Z,6.7
2018-04-02T01:31:48.597Z,6.7
2018-04-02T01:32:50.049Z,6.7
2018-04-02T01:33:51.300Z,6.6
2018-04-02T01:34:52.530Z,6.7
2018-04-02T01:35:53.749Z,6.7
2018-04-02T01:36:55.034Z,6.7
2018-04-02T01:37:56.388Z,6.8
2018-04-02T01:38:57.611Z,6.7
2018-04-02T01:39:58.864Z,6.8
2018-04-02T01:41:00.113Z,6.8
2018-04-02T01:42:01.405Z,6.8
2018-04-02T01:43:02.744Z,7
2018-04-02T01:44:03.979Z,7
2018-04-02T01:45:05.174Z,7
2018-04-02T01:46:06.484Z,6.8
2018-04-02T01:47:07.741Z,6.8
2018-04-02T01:48:09.022Z,6.8
2018-04-02T01:49:10.304Z,6.8
2018-04-02T01:50:11.617Z,6.8
2018-04-02T01:51:12.888Z,6.8
2018-04-02T01:52:14.152Z,6.9
2018-04-02T01:53:15.438Z,6.8
2018-04-02T01:54:16.754Z,6.8
2018-04-02T01:55:18.061Z,7
2018-04-02T01:56:22.887Z,6.9
2018-04-02T01:57:25.139Z,7
2018-04-02T01:58:26.426Z,7.1
2018-04-02T01:59:27.662Z,7
2018-04-02T02:00:28.904Z,7
2018-04-02T02:01:30.170Z,7
2018-04-02T02:02:31.403Z,7
2018-04-02T02:03:32.812Z,7.1
2018-04-02T02:04:34.086Z,7
2018-04-02T02:05:35.320Z,7
2018-04-02T02:06:36.552Z,7.2
2018-04-02T02:07:37.785Z,7.2
2018-04-02T02:08:42.353Z,7.1
2018-04-02T02:09:43.584Z,7.2
2018-04-02T02:10:44.820Z,7.2
2018-04-02T02:11:46.050Z,7.2
2018-04-02T02:12:47.713Z,7.1
2018-04-02T02:13:51.847Z,7.2
2018-04-02T02:14:53.087Z,7.1
2018-04-02T02:15:54.320Z,7.1
2018-04-02T02:16:55.550Z,7
2018-04-02T02:17:56.775Z,7.1
2018-04-02T02:18:58.060Z,7.1
2018-04-02T02:19:59.305Z,7.2
2018-04-02T02:21:00.576Z,7.1
2018-04-02T02:22:01.916Z,7.2
2018-04-02T02:23:03.166Z,7.3
2018-04-02T02:24:04.451Z,7.1
2018-04-02T02:25:05.664Z,7.2
2018-04-02T02:26:06.929Z,7.2
2018-04-02T02:27:08.164Z,7.2
2018-04-02T02:28:09.942Z,7.2
2018-04-02T02:29:11.623Z,7.1
2018-04-02T02:30:12.849Z,7.2
2018-04-02T02:31:14.562Z,7.2
2018-04-02T02:32:16.568Z,7.2
2018-04-02T02:33:17.793Z,7.3
2018-04-02T02:34:19.078Z,7.3
2018-04-02T02:35:20.370Z,7.2
2018-04-02T02:36:21.629Z,7.2
2018-04-02T02:37:22.977Z,7.2
2018-04-02T02:38:24.222Z,7.2
2018-04-02T02:39:25.506Z,7.2
2018-04-02T02:40:26.710Z,7.2
2018-04-02T02:41:27.947Z,7.3
2018-04-02T02:42:29.186Z,7.3
2018-04-02T02:43:30.452Z,7.3
2018-04-02T02:44:32.167Z,7.2
2018-04-02T02:45:33.405Z,7.2
2018-04-02T02:46:34.612Z,7.2
2018-04-02T02:47:36.342Z,7.2
2018-04-02T02:48:37.586Z,7.2
2018-04-02T02:49:38.825Z,7.2
2018-04-02T02:50:40.054Z,7.2
2018-04-02T02:51:41.308Z,7.2
2018-04-02T02:52:42.572Z,7.2
2018-04-02T02:53:43.843Z,7
2018-04-02T02:54:45.130Z,7
2018-04-02T02:55:46.364Z,7
2018-04-02T02:56:47.584Z,7.1
2018-04-02T02:57:48.818Z,7
2018-04-02T02:58:50.052Z,6.9
2018-04-02T02:59:51.378Z,6.9
2018-04-02T03:00:52.608Z,6.9
2018-04-02T03:01:53.817Z,6.9
2018-04-02T03:02:55.103Z,6.8
2018-04-02T03:03:56.396Z,6.9
2018-04-02T03:04:57.658Z,6.9
2018-04-02T03:05:58.885Z,6.9
2018-04-02T03:07:00.097Z,6.9
2018-04-02T03:08:01.326Z,6.9
2018-04-02T03:09:02.589Z,6.9
2018-04-02T03:10:03.823Z,7
2018-04-02T03:11:05.087Z,6.9
2018-04-02T03:12:06.372Z,6.8
2018-04-02T03:13:07.915Z,6.8
2018-04-02T03:14:09.775Z,6.9
2018-04-02T03:15:11.260Z,6.9
2018-04-02T03:16:12.497Z,7
2018-04-02T03:17:13.733Z,6.8
2018-04-02T03:18:14.986Z,6.9
2018-04-02T03:19:16.264Z,6.8
2018-04-02T03:20:17.582Z,6.9
2018-04-02T03:21:18.816Z,7
2018-04-02T03:22:20.087Z,7
2018-04-02T03:23:21.307Z,7
2018-04-02T03:24:22.602Z,7.1
2018-04-02T03:25:23.917Z,7.1
2018-04-02T03:26:25.172Z,7.1
2018-04-02T03:27:26.413Z,7
2018-04-02T03:28:27.625Z,7
2018-04-02T03:29:28.933Z,7
2018-04-02T03:30:30.245Z,6.9
2018-04-02T03:31:31.470Z,6.9
2018-04-02T03:32:32.720Z,6.9
2018-04-02T03:33:33.963Z,6.9
2018-04-02T03:34:35.189Z,6.9
2018-04-02T03:35:36.458Z,6.9
2018-04-02T03:36:37.712Z,7
2018-04-02T03:37:38.939Z,7
2018-04-02T03:38:40.256Z,7.1
2018-04-02T03:39:41.493Z,7.1
2018-04-02T03:40:42.760Z,7
2018-04-02T03:41:43.973Z,7.1
2018-04-02T03:42:45.238Z,7
2018-04-02T03:43:46.527Z,7
2018-04-02T03:44:47.904Z,6.9
2018-04-02T03:45:49.193Z,6.9
2018-04-02T03:46:50.424Z,7
2018-04-02T03:47:51.661Z,7
2018-04-02T03:48:52.903Z,7
2018-04-02T03:49:54.158Z,7
2018-04-02T03:50:55.393Z,7
2018-04-02T03:51:56.600Z,7.1
2018-04-02T03:52:57.862Z,6.8
2018-04-02T03:53:59.107Z,6.9
2018-04-02T03:55:00.410Z,7
2018-04-02T03:56:01.785Z,7.4
2018-04-02T03:57:03.017Z,7.3
2018-04-02T03:58:04.281Z,7.2
2018-04-02T03:59:05.508Z,7.2
2018-04-02T04:00:06.738Z,7.2
2018-04-02T04:01:08.048Z,7.2
2018-04-02T04:02:09.324Z,7.2
2018-04-02T04:03:10.665Z,7.1
2018-04-02T04:04:11.897Z,7.1
2018-04-02T04:05:13.174Z,7.2
2018-04-02T04:06:14.422Z,7.2
2018-04-02T04:07:15.920Z,7.2
2018-04-02T04:08:17.220Z,7.2
2018-04-02T04:09:18.434Z,7.3
2018-04-02T04:10:19.673Z,7.2
2018-04-02T04:11:21.002Z,7.4
2018-04-02T04:12:22.225Z,7.3
2018-04-02T04:13:23.466Z,7.3
2018-04-02T04:14:24.667Z,7.3
2018-04-02T04:15:25.902Z,7.2
2018-04-02T04:16:27.636Z,7.2
2018-04-02T04:17:28.879Z,7.3
2018-04-02T04:18:30.601Z,7.2
2018-04-02T04:19:31.812Z,7.2
2018-04-02T04:20:33.089Z,7.1
2018-04-02T04:21:34.345Z,7.1
2018-04-02T04:22:35.611Z,7.1
2018-04-02T04:23:36.852Z,7
2018-04-02T04:24:38.093Z,7
2018-04-02T04:25:40.380Z,7
2018-04-02T04:26:41.680Z,7
2018-04-02T04:27:42.901Z,7
2018-04-02T04:28:44.151Z,7
2018-04-02T04:29:45.393Z,6.9
2018-04-02T04:30:46.650Z,6.9
2018-04-02T04:31:48.029Z,6.8
2018-04-02T04:32:49.383Z,6.8
2018-04-02T04:33:50.629Z,6.7
2018-04-02T04:34:51.889Z,6.7
2018-04-02T04:35:53.107Z,6.7
2018-04-02T04:36:54.358Z,6.8
2018-04-02T04:37:55.585Z,6.8
2018-04-02T04:38:56.882Z,6.7
2018-04-02T04:39:58.101Z,6.7
2018-04-02T04:40:59.311Z,6.7
2018-04-02T04:42:00.576Z,6.7
2018-04-02T04:43:01.904Z,6.7
2018-04-02T04:44:03.145Z,6.7
2018-04-02T04:45:04.406Z,6.7
2018-04-02T04:46:05.714Z,6.8
2018-04-02T04:47:07.217Z,6.7
2018-04-02T04:48:08.471Z,6.6
2018-04-02T04:49:09.765Z,6.6
2018-04-02T04:50:11.096Z,6.6
2018-04-02T04:51:12.318Z,6.7
2018-04-02T04:52:13.589Z,6.7
2018-04-02T04:53:14.828Z,6.6
2018-04-02T04:54:16.067Z,6.7
2018-04-02T04:55:17.317Z,6.8
2018-04-02T04:56:18.531Z,6.7
2018-04-02T04:57:19.788Z,6.6
2018-04-02T04:58:21.077Z,6.7
2018-04-02T04:59:22.332Z,6.5
2018-04-02T05:00:23.528Z,6.5
2018-04-02T05:01:30.252Z,6.5
2018-04-02T05:02:31.555Z,6.6
2018-04-02T05:03:32.773Z,6.6
2018-04-02T05:04:34.010Z,6.6
2018-04-02T05:05:35.230Z,6.4
2018-04-02T05:06:39.759Z,6.4
2018-04-02T05:07:45.269Z,6.6
2018-04-02T05:08:46.496Z,6.6
2018-04-02T05:09:47.705Z,6.5
2018-04-02T05:10:48.919Z,6.5
2018-04-02T05:11:50.148Z,6.5
2018-04-02T05:12:51.433Z,6.5
2018-04-02T05:13:52.676Z,6.5
2018-04-02T05:14:53.903Z,6.4
2018-04-02T05:15:55.114Z,6.3
2018-04-02T05:16:56.363Z,6.3
2018-04-02T05:17:57.671Z,6.5
2018-04-02T05:18:58.905Z,6.5
2018-04-02T05:20:00.505Z,6.6
2018-04-02T05:21:01.847Z,6.5
2018-04-02T05:22:03.089Z,6.5
2018-04-02T05:23:04.586Z,6.6
2018-04-02T05:24:05.841Z,6.7
2018-04-02T05:25:07.098Z,6.6
2018-04-02T05:26:08.355Z,6.5
2018-04-02T05:27:11.490Z,6.4
2018-04-02T05:28:12.746Z,6.5
2018-04-02T05:29:14.506Z,6.4
2018-04-02T05:30:15.932Z,6.5
2018-04-02T05:31:17.214Z,6.4
2018-04-02T05:32:18.471Z,6.4
2018-04-02T05:33:19.957Z,6.6
2018-04-02T05:34:21.260Z,6.6
2018-04-02T05:35:22.490Z,6.5
2018-04-02T05:36:24.451Z,6.6
2018-04-02T05:37:25.877Z,6.5
2018-04-02T05:38:27.125Z,6.7
2018-04-02T05:39:28.342Z,6.7
2018-04-02T05:40:29.567Z,6.8
2018-04-02T05:41:30.844Z,6.8
2018-04-02T05:42:32.115Z,6.8
2018-04-02T05:43:34.065Z,6.8
2018-04-02T05:44:36.162Z,6.8
2018-04-02T05:45:37.389Z,7
2018-04-02T05:46:38.648Z,7.1
2018-04-02T05:47:39.889Z,7.2
2018-04-02T05:48:43.393Z,7.2
2018-04-02T05:49:44.656Z,7.1
2018-04-02T05:50:45.890Z,7.3
2018-04-02T05:51:47.135Z,7.3
2018-04-02T05:52:48.386Z,7.4
2018-04-02T05:53:49.625Z,7.5
2018-04-02T05:54:50.964Z,7.3
2018-04-02T05:55:52.277Z,7.6
2018-04-02T05:56:53.512Z,7.6
2018-04-02T05:57:54.745Z,7.7
2018-04-02T05:58:56.006Z,7.9
2018-04-02T05:59:57.234Z,7.7
2018-04-02T06:00:58.558Z,8
2018-04-02T06:01:59.855Z,8.1
2018-04-02T06:03:01.137Z,8.2
2018-04-02T06:04:02.436Z,8.3
2018-04-02T06:05:03.657Z,8.3
2018-04-02T06:06:04.910Z,8.2
2018-04-02T06:07:06.189Z,8.2
2018-04-02T06:08:07.408Z,8.3
2018-04-02T06:09:08.683Z,8.2
2018-04-02T06:10:09.952Z,8.1
2018-04-02T06:11:11.168Z,8.1
2018-04-02T06:12:13.767Z,8.3
2018-04-02T06:13:15.021Z,8.3
2018-04-02T06:14:16.336Z,8.4
2018-04-02T06:15:17.678Z,8.6
2018-04-02T06:16:18.929Z,8.8
2018-04-02T06:17:20.173Z,8.9
2018-04-02T06:18:24.450Z,9.2
2018-04-02T06:19:25.799Z,9.3
2018-04-02T06:20:27.000Z,9.4
2018-04-02T06:21:28.238Z,9.6
2018-04-02T06:22:29.488Z,9.8
2018-04-02T06:23:30.700Z,9.8
2018-04-02T06:24:31.990Z,9.8
2018-04-02T06:25:33.216Z,9.7
2018-04-02T06:26:35.266Z,9.7
2018-04-02T06:27:36.685Z,9.6
2018-04-02T06:28:37.898Z,9.7
2018-04-02T06:29:39.179Z,9.7
2018-04-02T06:30:40.400Z,9.6
2018-04-02T06:31:41.764Z,9.7
2018-04-02T06:32:42.925Z,9.7
2018-04-02T06:33:44.173Z,9.7
2018-04-02T06:34:45.573Z,9.7
2018-04-02T06:35:46.839Z,9.6
2018-04-02T06:36:48.101Z,9.7
2018-04-02T06:37:49.400Z,9.7
2018-04-02T06:38:50.618Z,9.6
2018-04-02T06:39:51.897Z,9.6
2018-04-02T06:40:53.136Z,9.8
2018-04-02T06:41:54.371Z,9.8
2018-04-02T06:42:55.576Z,9.7
2018-04-02T06:43:56.797Z,9.8
2018-04-02T06:44:58.059Z,9.7
2018-04-02T06:45:59.266Z,9.6
2018-04-02T06:47:00.866Z,9.7
2018-04-02T06:48:02.170Z,9.7
2018-04-02T06:49:03.397Z,9.7
2018-04-02T06:50:04.899Z,9.7
2018-04-02T06:51:06.337Z,9.7
2018-04-02T06:52:07.720Z,9.8
2018-04-02T06:53:09.066Z,9.8
2018-04-02T06:54:10.346Z,9.8
2018-04-02T06:55:11.839Z,9.7
2018-04-02T06:56:13.108Z,9.8
2018-04-02T06:57:14.341Z,9.8
2018-04-02T06:58:15.595Z,9.7
2018-04-02T06:59:16.834Z,9.9
2018-04-02T07:00:18.156Z,9.8
2018-04-02T07:01:20.484Z,9.8
2018-04-02T07:02:25.209Z,9.9
2018-04-02T07:03:26.475Z,9.9
2018-04-02T07:04:27.775Z,10.1
2018-04-02T07:05:29.093Z,10.1
2018-04-02T07:06:30.385Z,10.1
2018-04-02T07:07:31.639Z,10.2
2018-04-02T07:08:32.943Z,10.2
2018-04-02T07:09:34.119Z,10.4
2018-04-02T07:10:35.413Z,10.7
2018-04-02T07:11:36.652Z,10.9
2018-04-02T07:12:37.884Z,11.2
2018-04-02T07:13:39.161Z,11.3
2018-04-02T07:14:40.381Z,11.5
2018-04-02T07:15:41.710Z,11.6
2018-04-02T07:16:42.969Z,11.7
2018-04-02T07:17:45.349Z,11.8
2018-04-02T07:18:46.769Z,11.8
2018-04-02T07:19:47.985Z,12
2018-04-02T07:20:49.382Z,12
2018-04-02T07:21:50.629Z,12
2018-04-02T07:22:51.909Z,12
2018-04-02T07:23:53.144Z,11.9
2018-04-02T07:24:54.484Z,11.9
2018-04-02T07:25:55.767Z,11.9
2018-04-02T07:26:56.999Z,11.9
2018-04-02T07:27:58.570Z,12
2018-04-02T07:28:59.843Z,12.3
2018-04-02T07:30:01.240Z,12.7
2018-04-02T07:31:02.590Z,13.1
2018-04-02T07:32:03.862Z,13.3
2018-04-02T07:33:05.109Z,13.4
2018-04-02T07:34:06.393Z,13.7
2018-04-02T07:35:07.672Z,13.8
2018-04-02T07:36:09.020Z,13.9
2018-04-02T07:37:10.482Z,14.1
2018-04-02T07:38:11.751Z,14.2
2018-04-02T07:39:12.970Z,14.4
2018-04-02T07:40:14.247Z,14.5
2018-04-02T07:41:22.091Z,14.6
2018-04-02T07:42:23.376Z,14.8
2018-04-02T07:43:24.607Z,14.9
2018-04-02T07:44:25.882Z,15
2018-04-02T07:45:27.161Z,15.1
2018-04-02T07:46:28.529Z,15.2
2018-04-02T07:47:29.774Z,15.3
2018-04-02T07:48:31.188Z,15.4
2018-04-02T07:49:32.529Z,15.4
2018-04-02T07:50:33.801Z,15.4
2018-04-02T07:51:35.082Z,15.4
2018-04-02T07:52:36.472Z,15.5
2018-04-02T07:53:37.753Z,15.6
2018-04-02T07:54:39.183Z,15.6
2018-04-02T07:55:40.476Z,15.6
2018-04-02T07:56:41.852Z,15.8
2018-04-02T07:57:43.101Z,15.8
2018-04-02T07:58:44.344Z,15.8
2018-04-02T07:59:48.372Z,16
2018-04-02T08:00:50.168Z,16.2
2018-04-02T08:01:51.594Z,16.3
2018-04-02T08:02:53.056Z,16.4
2018-04-02T08:03:54.212Z,16.4
2018-04-02T08:04:55.500Z,16.6
2018-04-02T08:05:56.737Z,16.6
2018-04-02T08:06:58.047Z,16.6
2018-04-02T08:07:59.297Z,16.7
2018-04-02T08:09:00.812Z,16.7
2018-04-02T08:10:02.136Z,16.8
2018-04-02T08:11:03.446Z,16.9
2018-04-02T08:12:04.848Z,17
2018-04-02T08:13:06.041Z,17.1
2018-04-02T08:14:07.295Z,17.2
2018-04-02T08:15:08.701Z,17.3
2018-04-02T08:16:10.271Z,17.3
2018-04-02T08:17:11.623Z,17.4
2018-04-02T08:18:12.974Z,17.4
2018-04-02T08:19:14.447Z,17.6
2018-04-02T08:20:15.781Z,17.6
2018-04-02T08:21:17.164Z,17.7
2018-04-02T08:22:18.772Z,17.7
2018-04-02T08:23:20.032Z,17.9
2018-04-02T08:24:21.317Z,17.9
2018-04-02T08:25:22.671Z,18
2018-04-02T08:26:23.887Z,18
2018-04-02T08:27:25.155Z,17.9
2018-04-02T08:28:26.393Z,18
2018-04-02T08:29:27.624Z,18.1
2018-04-02T08:30:28.914Z,18.1
2018-04-02T08:31:30.267Z,18
2018-04-02T08:32:31.757Z,18.1
2018-04-02T08:33:36.525Z,18.2
2018-04-02T08:34:39.495Z,18.1
2018-04-02T08:35:40.782Z,18.2
2018-04-02T08:36:42.113Z,18.3
2018-04-02T08:37:43.451Z,18.3
2018-04-02T08:38:44.704Z,18.4
2018-04-02T08:39:47.035Z,18.4
2018-04-02T08:40:48.363Z,18.3
2018-04-02T08:41:49.765Z,18.4
2018-04-02T08:42:51.126Z,18.4
2018-04-02T08:43:52.731Z,18.5
2018-04-02T08:44:54.297Z,18.5
2018-04-02T08:45:55.606Z,18.5
2018-04-02T08:46:56.981Z,18.5
2018-04-02T08:47:58.300Z,18.5
2018-04-02T08:48:59.561Z,18.5
2018-04-02T08:50:00.873Z,18.5
2018-04-02T08:51:04.679Z,18.5
2018-04-02T08:52:07.551Z,18.5
2018-04-02T08:53:09.085Z,18.5
2018-04-02T08:54:10.796Z,18.6
2018-04-02T08:55:12.377Z,18.6
2018-04-02T08:56:13.818Z,18.6
2018-04-02T08:57:15.257Z,18.6
2018-04-02T08:58:17.006Z,18.6
2018-04-02T08:59:18.278Z,18.6
2018-04-02T09:00:19.542Z,18.6
2018-04-02T09:01:20.895Z,18.6
2018-04-02T09:02:22.373Z,18.6
2018-04-02T09:03:23.713Z,18.6
2018-04-02T09:04:25.019Z,18.6
2018-04-02T09:05:26.228Z,18.7
2018-04-02T09:06:27.518Z,18.7
2018-04-02T09:07:28.767Z,18.7
2018-04-02T09:08:30.108Z,18.7
2018-04-02T09:09:31.365Z,18.7
2018-04-02T09:10:32.648Z,18.7
2018-04-02T09:11:33.938Z,18.8
2018-04-02T09:12:40.796Z,18.8
2018-04-02T09:13:42.167Z,18.8
2018-04-02T09:14:43.448Z,18.8
2018-04-02T09:15:44.859Z,18.8
2018-04-02T09:16:46.345Z,18.8
2018-04-02T09:17:47.732Z,18.9
2018-04-02T09:18:49.078Z,18.9
2018-04-02T09:19:50.301Z,18.9
2018-04-02T09:20:51.575Z,18.9
2018-04-02T09:21:52.904Z,18.9
2018-04-02T09:22:54.170Z,19
2018-04-02T09:23:55.477Z,19
2018-04-02T09:24:56.998Z,19
2018-04-02T09:25:58.252Z,19
2018-04-02T09:26:59.499Z,19
2018-04-02T09:28:01.213Z,19
2018-04-02T09:29:02.726Z,19
2018-04-02T09:30:03.961Z,19
2018-04-02T09:31:05.207Z,19
2018-04-02T09:32:06.508Z,19
2018-04-02T09:33:07.752Z,19
2018-04-02T09:34:08.997Z,19
2018-04-02T09:35:10.257Z,19.1
2018-04-02T09:36:11.534Z,19.1
2018-04-02T09:37:12.915Z,19.1
2018-04-02T09:38:14.173Z,19
2018-04-02T09:39:15.461Z,19.1
2018-04-02T09:40:16.796Z,19.2
2018-04-02T09:41:18.128Z,19.2
2018-04-02T09:42:19.388Z,19.1
2018-04-02T09:43:20.647Z,19.2
2018-04-02T09:44:21.985Z,19.4
2018-04-02T09:45:23.221Z,19.5
2018-04-02T09:46:24.449Z,19.5
2018-04-02T09:47:25.742Z,19.5
2018-04-02T09:48:27.078Z,19.5
2018-04-02T09:49:28.684Z,19.5
2018-04-02T09:50:29.952Z,19.5
2018-04-02T09:51:31.462Z,19.5
2018-04-02T09:52:32.796Z,19.5
2018-04-02T09:53:34.038Z,19.6
2018-04-02T09:54:35.372Z,19.6
2018-04-02T09:55:36.701Z,19.6
2018-04-02T09:56:37.987Z,19.6
2018-04-02T09:57:41.141Z,19.6
2018-04-02T09:58:42.476Z,19.6
2018-04-02T09:59:43.829Z,19.6
2018-04-02T10:00:45.097Z,19.6
2018-04-02T10:01:46.370Z,19.7
2018-04-02T10:02:50.729Z,19.7
2018-04-02T10:03:52.079Z,19.7
2018-04-02T10:04:53.486Z,19.7
2018-04-02T10:05:54.723Z,19.7
2018-04-02T10:06:56.154Z,19.7
2018-04-02T10:07:57.419Z,19.7
2018-04-02T10:08:58.712Z,19.8
2018-04-02T10:10:00.175Z,19.8
2018-04-02T10:11:01.457Z,19.8
2018-04-02T10:12:02.758Z,19.9
2018-04-02T10:13:04.038Z,19.9
2018-04-02T10:14:05.333Z,19.9
2018-04-02T10:15:06.643Z,19.9
2018-04-02T10:16:08.036Z,19.9
2018-04-02T10:17:09.418Z,19.9
2018-04-02T10:18:10.769Z,19.9
2018-04-02T10:19:12.104Z,19.9
2018-04-02T10:20:13.897Z,20
2018-04-02T10:21:15.121Z,20
2018-04-02T10:22:16.357Z,20
2018-04-02T10:23:17.611Z,20
2018-04-02T10:24:18.884Z,20
2018-04-02T10:25:20.304Z,20
2018-04-02T10:26:21.594Z,20
2018-04-02T10:27:22.892Z,20.1
2018-04-02T10:28:24.160Z,20.1
2018-04-02T10:29:25.416Z,20.1
2018-04-02T10:30:26.689Z,20.1
2018-04-02T10:31:27.930Z,20.1
2018-04-02T10:32:29.184Z,20.1
2018-04-02T10:33:30.472Z,20
2018-04-02T10:34:31.732Z,20.1
2018-04-02T10:35:33.141Z,20.1
2018-04-02T10:36:34.421Z,20.1
2018-04-02T10:37:35.688Z,20.1
2018-04-02T10:38:36.949Z,20.1
2018-04-02T10:39:38.214Z,20.1
2018-04-02T10:40:39.689Z,20.1
2018-04-02T10:41:40.996Z,20.1
2018-04-02T10:42:42.288Z,20.1
2018-04-02T10:43:43.572Z,20.1
2018-04-02T10:44:44.783Z,20.1
2018-04-02T10:45:46.099Z,20.1
2018-04-02T10:46:47.357Z,20.1
2018-04-02T10:47:53.197Z,20.1
2018-04-02T10:48:54.451Z,20.1
2018-04-02T10:49:55.823Z,20
2018-04-02T10:50:59.298Z,20.1
2018-04-02T10:52:00.562Z,20.2
2018-04-02T10:53:01.843Z,20.2
2018-04-02T10:54:03.081Z,20.1
2018-04-02T10:55:04.357Z,20.1
2018-04-02T10:56:05.782Z,20.2
2018-04-02T10:57:07.057Z,20.2
2018-04-02T10:58:08.411Z,20.2
2018-04-02T10:59:09.797Z,20.2
2018-04-02T11:00:11.078Z,20.2
2018-04-02T11:01:12.401Z,20.2
2018-04-02T11:02:13.685Z,20.2
2018-04-02T11:03:14.998Z,20.3
2018-04-02T11:04:16.276Z,20.3
2018-04-02T11:05:17.621Z,20.3
2018-04-02T11:06:18.929Z,20.3
2018-04-02T11:07:20.178Z,20.3
2018-04-02T11:08:21.732Z,20.3
2018-04-02T11:09:23.087Z,20.4
2018-04-02T11:10:24.342Z,20.4
2018-04-02T11:11:25.705Z,20.4
2018-04-02T11:12:26.950Z,20.5
2018-04-02T11:13:28.166Z,20.5
2018-04-02T11:14:29.489Z,20.4
2018-04-02T11:15:30.764Z,20.4
2018-04-02T11:16:32.096Z,20.4
2018-04-02T11:17:33.400Z,20.4
2018-04-02T11:18:34.693Z,20.5
2018-04-02T11:19:36.076Z,20.3
2018-04-02T11:20:37.336Z,20.5
2018-04-02T11:21:38.658Z,20.5
2018-04-02T11:22:40.887Z,20.5
2018-04-02T11:23:44.649Z,20.5
2018-04-02T11:24:48.071Z,20.5
2018-04-02T11:25:49.337Z,20.5
2018-04-02T11:26:50.794Z,20.5
2018-04-02T11:27:56.227Z,20.5
2018-04-02T11:28:57.626Z,20.5
2018-04-02T11:29:58.869Z,20.6
2018-04-02T11:31:00.190Z,20.6
2018-04-02T11:32:01.562Z,20.6
2018-04-02T11:33:02.988Z,20.6
2018-04-02T11:34:04.248Z,20.5
2018-04-02T11:35:05.577Z,20.6
2018-04-02T11:36:06.839Z,20.5
2018-04-02T11:37:08.159Z,20.6
2018-04-02T11:38:09.696Z,20.6
2018-04-02T11:39:10.992Z,20.6
2018-04-02T11:40:12.357Z,20.6
2018-04-02T11:41:13.696Z,20.6
2018-04-02T11:42:37.061Z,20.6
2018-04-02T11:43:38.388Z,20.7
2018-04-02T11:44:39.662Z,20.7
2018-04-02T11:45:40.937Z,20.7
2018-04-02T11:46:42.210Z,20.7
2018-04-02T11:47:43.624Z,20.7
2018-04-02T11:48:44.958Z,20.7
2018-04-02T11:49:46.239Z,20.7
2018-04-02T11:50:47.520Z,20.7
2018-04-02T11:51:48.860Z,20.7
2018-04-02T11:52:50.582Z,20.7
2018-04-02T11:53:51.884Z,20.7
2018-04-02T11:54:53.364Z,20.7
2018-04-02T11:55:54.805Z,20.7
2018-04-02T11:56:56.071Z,20.7
2018-04-02T11:57:57.708Z,20.7
2018-04-02T11:58:59.019Z,20.7
2018-04-02T12:00:00.256Z,20.7
2018-04-02T12:01:01.548Z,20.8
2018-04-02T12:02:02.959Z,20.8
2018-04-02T12:03:04.274Z,20.8
2018-04-02T12:04:05.560Z,20.7
2018-04-02T12:05:06.858Z,20.8
2018-04-02T12:06:08.300Z,20.8
2018-04-02T12:07:09.602Z,20.8
2018-04-02T12:08:10.947Z,20.8
2018-04-02T12:09:12.244Z,20.8
2018-04-02T12:10:13.765Z,20.8
2018-04-02T12:11:15.056Z,20.8
2018-04-02T12:12:16.336Z,20.9
2018-04-02T12:13:20.810Z,20.8
2018-04-02T12:14:22.088Z,20.9
2018-04-02T12:15:23.360Z,20.9
2018-04-02T12:16:24.631Z,20.9
2018-04-02T12:17:25.950Z,20.9
2018-04-02T12:18:27.231Z,20.8
2018-04-02T12:19:28.535Z,20.9
2018-04-02T12:20:29.793Z,20.9
2018-04-02T12:21:31.043Z,20.9
2018-04-02T12:22:32.401Z,20.9
2018-04-02T12:23:34.079Z,20.9
2018-04-02T12:24:35.388Z,20.9
2018-04-02T12:25:36.655Z,20.8
2018-04-02T12:26:43.798Z,20.8
2018-04-02T12:27:45.040Z,20.8
2018-04-02T12:28:46.581Z,20.9
2018-04-02T12:29:47.860Z,20.8
2018-04-02T12:30:49.158Z,20.8
2018-04-02T12:31:50.475Z,20.8
2018-04-02T12:32:51.884Z,20.9
2018-04-02T12:33:53.375Z,20.9
2018-04-02T12:34:54.640Z,20.9
2018-04-02T12:35:55.944Z,20.9
2018-04-02T12:36:57.220Z,20.9
2018-04-02T12:37:58.832Z,20.9
2018-04-02T12:39:00.301Z,20.9
2018-04-02T12:40:02.337Z,20.9
2018-04-02T12:41:03.691Z,20.9
2018-04-02T12:42:04.990Z,20.9
2018-04-02T12:43:06.265Z,20.9
2018-04-02T12:44:07.655Z,21
2018-04-02T12:45:09.036Z,20.9
2018-04-02T12:46:10.328Z,20.9
2018-04-02T12:47:11.556Z,21
2018-04-02T12:48:13.199Z,21
2018-04-02T12:49:14.571Z,21
2018-04-02T12:50:15.966Z,21
2018-04-02T12:51:17.239Z,21
2018-04-02T12:52:18.504Z,21
2018-04-02T12:53:21.034Z,21
2018-04-02T12:54:22.707Z,21
2018-04-02T12:55:24.124Z,21
2018-04-02T12:56:25.498Z,21
2018-04-02T12:57:26.823Z,21
2018-04-02T12:58:28.133Z,21
2018-04-02T12:59:30.328Z,20.9
2018-04-02T13:00:31.613Z,21
2018-04-02T13:01:32.932Z,21
2018-04-02T13:02:34.195Z,21
2018-04-02T13:03:35.441Z,21
2018-04-02T13:04:36.868Z,21
2018-04-02T13:05:38.060Z,21
2018-04-02T13:06:39.326Z,21
2018-04-02T13:07:40.825Z,21
2018-04-02T13:08:42.135Z,21.1
2018-04-02T13:09:43.510Z,21.1
2018-04-02T13:10:44.936Z,21
2018-04-02T13:11:46.306Z,21.1
2018-04-02T13:12:47.595Z,21.1
2018-04-02T13:13:48.833Z,21.1
2018-04-02T13:14:50.686Z,21.1
2018-04-02T13:15:52.020Z,21.1
2018-04-02T13:16:53.669Z,21.2
2018-04-02T13:17:55.007Z,21.2
2018-04-02T13:18:56.989Z,21.1
2018-04-02T13:19:57.714Z,21.1
2018-04-02T13:20:59.011Z,21.1
2018-04-02T13:22:00.452Z,21.1
2018-04-02T13:23:01.826Z,21
2018-04-02T13:24:03.174Z,21.1
2018-04-02T13:25:05.839Z,21.2
2018-04-02T13:26:07.250Z,21.1
2018-04-02T13:27:08.552Z,21.2
2018-04-02T13:28:10.713Z,21.2
2018-04-02T13:29:11.990Z,21.1
2018-04-02T13:30:13.472Z,21.1
2018-04-02T13:31:21.558Z,21.1
2018-04-02T13:32:22.919Z,21.2
2018-04-02T13:33:24.316Z,21.1
2018-04-02T13:34:25.588Z,21.2
2018-04-02T13:35:26.907Z,21.1
2018-04-02T13:36:28.162Z,21.1
2018-04-02T13:37:29.473Z,21
2018-04-02T13:38:30.874Z,21.1
2018-04-02T13:39:32.260Z,21.1
2018-04-02T13:40:33.597Z,21.1
2018-04-02T13:41:34.850Z,21.1
2018-04-02T13:42:36.225Z,21.1
2018-04-02T13:43:38.318Z,21
2018-04-02T13:44:39.545Z,21.1
2018-04-02T13:45:40.878Z,21.1
2018-04-02T13:46:42.178Z,21.1
2018-04-02T13:47:43.533Z,21.1
2018-04-02T13:48:44.866Z,21.1
2018-04-02T13:49:46.280Z,21.1
2018-04-02T13:50:47.565Z,21.1
2018-04-02T13:51:48.855Z,21.1
2018-04-02T13:52:50.215Z,21.1
2018-04-02T13:53:51.484Z,21.1
2018-04-02T13:54:52.754Z,21.1
2018-04-02T13:55:54.100Z,21
2018-04-02T13:56:55.540Z,21.1
2018-04-02T13:57:56.841Z,21.1
2018-04-02T13:58:58.146Z,21
2018-04-02T13:59:59.419Z,21.1